Time;durP1;ratioP1;P1;durP2;ratioP2;P2;SDS_P1;SDS_P2;PMS_P1;PMS_P2;Temp;Humidity;BMP_temperature;BMP_pressure;BME280_temperature;BME280_humidity;BME280_pressure;Samples;Min_cycle;Max_cycle;Signal;HPM_P1;HPM_P2
2023/01/10 00:00:33;;;;;;;7.20;2.33;;;6.30;99.90;;;;;;5101731;28;20879;-62
2023/01/10 00:03:04;;;;;;;8.43;1.80;;;6.20;99.90;;;;;;5098621;28;20572;-62
2023/01/10 00:05:31;;;;;;;6.13;1.80;;;6.20;99.90;;;;;;5102416;28;20388;-62
2023/01/10 00:07:58;;;;;;;7.83;1.50;;;6.20;99.90;;;;;;5100558;28;20235;-62
2023/01/10 00:10:25;;;;;;;8.27;2.30;;;6.20;99.90;;;;;;5084543;28;20251;-62
2023/01/10 00:15:38;;;;;;;16.20;2.03;;;6.00;99.90;;;;;;5099577;28;20212;-63
2023/01/10 00:18:05;;;;;;;6.90;1.50;;;6.00;99.90;;;;;;5100727;28;20518;-63
2023/01/10 00:20:32;;;;;;;4.50;1.97;;;6.00;99.90;;;;;;5101008;28;20194;-64
2023/01/10 00:22:58;;;;;;;7.00;2.03;;;6.00;99.90;;;;;;5101270;28;20586;-63
2023/01/10 00:25:25;;;;;;;14.27;1.97;;;5.90;99.90;;;;;;5081930;28;20205;-64
2023/01/10 00:30:39;;;;;;;6.07;1.67;;;5.90;99.90;;;;;;5097522;28;20230;-63
2023/01/10 00:33:09;;;;;;;9.73;1.47;;;5.90;99.90;;;;;;5099091;28;20310;-64
2023/01/10 00:35:35;;;;;;;6.67;1.63;;;5.90;99.90;;;;;;5101739;28;20737;-63
2023/01/10 00:38:05;;;;;;;11.30;1.60;;;5.80;99.90;;;;;;5100800;28;20222;-64
2023/01/10 00:40:32;;;;;;;5.37;1.57;;;5.80;99.90;;;;;;5100169;28;20265;-63
2023/01/10 00:45:45;;;;;;;12.30;2.90;;;5.80;99.90;;;;;;5101222;28;20205;-63
2023/01/10 00:48:13;;;;;;;5.73;1.70;;;5.80;99.90;;;;;;5099479;28;20246;-63
2023/01/10 00:50:40;;;;;;;8.00;1.60;;;5.90;99.90;;;;;;5099703;28;20200;-64
2023/01/10 00:53:07;;;;;;;6.63;1.97;;;5.80;99.90;;;;;;5098645;28;20219;-63
2023/01/10 00:55:35;;;;;;;9.40;1.73;;;5.80;99.90;;;;;;5100343;28;20201;-63
2023/01/10 00:58:02;;;;;;;10.97;2.33;;;5.80;99.90;;;;;;5098917;28;20228;-63
2023/01/10 01:00:29;;;;;;;8.33;2.37;;;5.80;99.90;;;;;;5080549;28;20233;-63
2023/01/10 01:02:56;;;;;;;10.53;1.80;;;5.90;99.90;;;;;;5099176;28;20291;-60
2023/01/10 01:05:23;;;;;;;10.13;2.17;;;5.90;99.90;;;;;;5094789;28;20198;-62
2023/01/10 01:07:51;;;;;;;8.20;1.90;;;5.90;99.90;;;;;;5098921;28;20539;-61
2023/01/10 01:10:26;;;;;;;5.37;1.57;;;6.00;99.90;;;;;;5098166;28;20228;-61
2023/01/10 01:12:59;;;;;;;4.13;1.37;;;6.00;99.90;;;;;;5080515;28;20202;-60
2023/01/10 01:15:26;;;;;;;4.83;1.50;;;6.10;99.90;;;;;;5101315;28;20198;-61
2023/01/10 01:17:54;;;;;;;5.67;1.43;;;6.10;99.90;;;;;;5098062;28;20199;-66
2023/01/10 01:20:21;;;;;;;5.97;1.67;;;6.20;99.90;;;;;;5100741;28;20230;-64
2023/01/10 01:22:47;;;;;;;6.17;1.17;;;6.20;99.90;;;;;;5099546;28;20204;-62
2023/01/10 01:25:14;;;;;;;11.03;1.70;;;6.20;99.90;;;;;;5101203;28;20574;-61
2023/01/10 01:27:41;;;;;;;8.43;2.10;;;6.20;99.90;;;;;;5097463;28;20227;-62
2023/01/10 01:30:10;;;;;;;6.93;1.53;;;6.20;99.90;;;;;;5098950;28;20239;-62
2023/01/10 01:32:36;;;;;;;9.53;1.63;;;6.20;99.90;;;;;;5081819;28;20201;-66
2023/01/10 01:35:05;;;;;;;4.13;1.23;;;6.10;99.90;;;;;;5081520;28;20258;-62
2023/01/10 01:37:32;;;;;;;3.93;1.60;;;6.10;99.90;;;;;;5101770;28;20677;-61
2023/01/10 01:39:59;;;;;;;7.83;1.83;;;6.00;99.90;;;;;;5097582;28;20206;-61
2023/01/10 01:42:30;;;;;;;10.10;1.43;;;6.00;99.90;;;;;;5081676;28;20238;-61
2023/01/10 01:45:24;;;;;;;8.43;1.97;;;6.00;99.90;;;;;;5097744;28;20726;-60
2023/01/10 01:47:59;;;;;;;6.47;2.10;;;5.90;99.90;;;;;;5100336;28;20285;-66
2023/01/10 01:50:38;;;;;;;5.07;1.50;;;5.90;99.90;;;;;;5099073;28;20710;-64
2023/01/10 01:53:30;;;;;;;6.37;1.70;;;5.90;99.90;;;;;;5098555;28;20235;-62
2023/01/10 01:56:02;;;;;;;10.43;2.03;;;5.90;99.90;;;;;;5099702;28;20192;-61
2023/01/10 01:58:43;;;;;;;11.90;2.33;;;5.90;99.90;;;;;;5078591;28;20240;-60
2023/01/10 02:01:11;;;;;;;9.40;2.47;;;5.90;99.90;;;;;;5097388;28;20202;-61
2023/01/10 02:03:41;;;;;;;9.37;2.13;;;5.90;99.90;;;;;;5099763;28;20267;-61
2023/01/10 02:06:08;;;;;;;5.90;2.13;;;5.80;99.90;;;;;;5100434;28;20248;-61
2023/01/10 02:08:36;;;;;;;9.17;2.47;;;5.80;99.90;;;;;;5096135;28;20213;-61
2023/01/10 02:11:10;;;;;;;9.33;2.00;;;5.90;99.90;;;;;;5080409;28;20309;-60
2023/01/10 02:13:41;;;;;;;9.83;2.33;;;5.90;99.90;;;;;;5095497;28;20206;-61
2023/01/10 02:16:09;;;;;;;5.80;2.07;;;5.90;99.90;;;;;;5093911;28;20205;-61
2023/01/10 02:18:41;;;;;;;8.43;1.93;;;5.90;99.90;;;;;;5095600;28;20578;-61
2023/01/10 02:21:37;;;;;;;10.23;2.50;;;5.90;99.90;;;;;;5099393;28;20207;-60
2023/01/10 02:24:26;;;;;;;8.87;1.87;;;6.00;99.90;;;;;;5094912;28;20295;-66
2023/01/10 02:27:19;;;;;;;7.33;2.73;;;6.00;99.90;;;;;;5098806;28;20556;-61
2023/01/10 02:29:57;;;;;;;7.90;1.93;;;6.00;99.90;;;;;;5064165;28;20202;-61
2023/01/10 02:32:49;;;;;;;11.60;3.00;;;6.00;99.90;;;;;;5076163;28;20195;-60
2023/01/10 02:35:55;;;;;;;12.40;2.90;;;6.00;99.90;;;;;;5082313;28;20201;-62
2023/01/10 02:38:31;;;;;;;10.77;2.30;;;6.00;99.90;;;;;;5099028;28;20196;-61
2023/01/10 02:41:23;;;;;;;10.53;3.27;;;6.10;99.90;;;;;;5097598;28;20291;-60
2023/01/10 02:43:56;;;;;;;10.37;2.80;;;6.10;99.90;;;;;;5096558;28;20219;-60
2023/01/10 02:46:28;;;;;;;11.30;2.60;;;6.00;99.90;;;;;;5094143;28;20298;-61
2023/01/10 02:48:55;;;;;;;12.83;2.87;;;6.00;99.90;;;;;;5077741;28;20241;-60
2023/01/10 02:51:26;;;;;;;9.07;3.50;;;6.00;99.90;;;;;;5099229;28;20200;-61
2023/01/10 02:54:18;;;;;;;10.90;2.70;;;6.00;99.90;;;;;;5097490;28;20226;-60
2023/01/10 02:56:45;;;;;;;16.40;3.07;;;6.00;99.90;;;;;;5097847;28;20647;-60
2023/01/10 02:59:42;;;;;;;12.57;3.77;;;6.00;99.90;;;;;;5094468;28;20205;-60
2023/01/10 03:02:44;;;;;;;10.47;2.70;;;6.00;99.90;;;;;;5095294;28;20217;-61
2023/01/10 03:05:27;;;;;;;11.57;2.63;;;6.00;99.90;;;;;;5095529;28;20205;-60
2023/01/10 03:07:57;;;;;;;17.03;2.17;;;6.00;99.90;;;;;;5096390;28;20245;-62
2023/01/10 03:10:36;;;;;;;9.50;2.27;;;6.10;99.90;;;;;;5080398;28;20296;-60
2023/01/10 03:13:14;;;;;;;14.17;3.07;;;6.10;99.90;;;;;;5076632;28;20299;-60
2023/01/10 03:15:42;;;;;;;16.57;2.77;;;6.10;99.90;;;;;;5094536;28;20290;-62
2023/01/10 03:18:19;;;;;;;8.90;2.60;;;6.10;99.90;;;;;;5098883;28;20278;-60
2023/01/10 03:20:49;;;;;;;11.93;2.80;;;6.10;99.90;;;;;;5098777;28;20197;-60
2023/01/10 03:23:17;;;;;;;9.70;2.80;;;6.10;99.90;;;;;;5080689;28;20205;-60
2023/01/10 03:25:46;;;;;;;8.53;2.77;;;6.00;99.90;;;;;;5097217;28;20345;-60
2023/01/10 03:28:23;;;;;;;9.77;3.00;;;6.00;99.90;;;;;;5097789;28;20205;-61
2023/01/10 03:30:59;;;;;;;8.87;2.90;;;6.10;99.90;;;;;;5079388;28;20251;-61
2023/01/10 03:33:29;;;;;;;15.83;3.07;;;6.10;99.90;;;;;;5098523;28;20568;-61
2023/01/10 03:35:59;;;;;;;9.77;2.87;;;6.00;99.90;;;;;;5097699;28;20195;-62
2023/01/10 03:38:55;;;;;;;7.73;3.10;;;6.00;99.90;;;;;;5096950;28;20197;-61
2023/01/10 03:41:40;;;;;;;6.47;2.30;;;6.00;99.90;;;;;;5098733;28;20228;-61
2023/01/10 03:44:44;;;;;;;6.50;2.60;;;6.00;99.90;;;;;;5094225;28;20279;-63
2023/01/10 03:47:37;;;;;;;11.43;2.80;;;6.00;99.90;;;;;;5094585;28;20194;-63
2023/01/10 03:50:21;;;;;;;15.90;3.30;;;6.00;99.90;;;;;;5096038;28;20249;-63
2023/01/10 03:52:48;;;;;;;8.27;2.83;;;6.00;99.90;;;;;;5096338;28;20274;-63
2023/01/10 03:55:20;;;;;;;8.13;2.20;;;6.00;99.90;;;;;;5097917;28;20681;-63
2023/01/10 03:57:47;;;;;;;10.20;2.77;;;5.90;99.90;;;;;;5094548;28;20217;-63
2023/01/10 04:00:15;;;;;;;13.17;2.50;;;5.90;99.90;;;;;;5076771;28;20679;-63
2023/01/10 04:02:43;;;;;;;11.17;4.13;;;6.00;99.90;;;;;;5095657;28;20659;-63
2023/01/10 04:05:10;;;;;;;10.77;2.43;;;6.00;99.90;;;;;;5096431;28;20206;-64
2023/01/10 04:07:37;;;;;;;11.93;2.57;;;6.00;99.90;;;;;;5099210;28;20665;-64
2023/01/10 04:10:07;;;;;;;16.93;3.30;;;6.00;99.90;;;;;;5100008;28;20855;-63
2023/01/10 04:12:34;;;;;;;10.87;3.30;;;6.00;99.90;;;;;;5101521;28;20209;-63
2023/01/10 04:15:01;;;;;;;10.07;2.80;;;6.00;99.90;;;;;;5099896;28;20665;-63
2023/01/10 04:17:28;;;;;;;8.90;2.53;;;6.00;99.90;;;;;;5098470;28;20263;-63
2023/01/10 04:19:55;;;;;;;11.73;2.63;;;6.00;99.90;;;;;;5098774;28;20275;-63
2023/01/10 04:22:22;;;;;;;13.37;2.77;;;6.00;99.90;;;;;;5099544;28;20194;-63
2023/01/10 04:24:50;;;;;;;9.13;2.67;;;6.00;99.90;;;;;;5100999;28;20207;-64
2023/01/10 04:27:18;;;;;;;9.73;2.83;;;6.00;99.90;;;;;;5095259;28;20234;-62
2023/01/10 04:29:45;;;;;;;9.53;2.63;;;6.00;99.90;;;;;;5098646;28;20210;-64
2023/01/10 04:32:12;;;;;;;16.00;2.90;;;6.00;99.90;;;;;;5097641;28;20201;-63
2023/01/10 04:34:39;;;;;;;11.43;2.27;;;6.00;99.90;;;;;;5101273;28;20214;-63
2023/01/10 04:37:05;;;;;;;14.70;2.80;;;6.00;99.90;;;;;;5081150;28;20281;-63
2023/01/10 04:39:32;;;;;;;10.37;2.63;;;6.00;99.90;;;;;;5098770;28;20227;-64
2023/01/10 04:41:59;;;;;;;12.53;2.70;;;6.00;99.90;;;;;;5079549;28;20225;-64
2023/01/10 04:44:26;;;;;;;15.07;2.93;;;6.10;99.90;;;;;;5100941;28;20237;-63
2023/01/10 04:46:53;;;;;;;12.43;2.30;;;6.10;99.90;;;;;;5096285;28;20651;-63
2023/01/10 04:49:19;;;;;;;13.10;3.40;;;6.10;99.90;;;;;;5098071;28;20234;-63
2023/01/10 04:51:46;;;;;;;7.93;2.30;;;6.10;99.90;;;;;;5081604;28;20578;-63
2023/01/10 04:54:13;;;;;;;10.27;2.40;;;6.10;99.90;;;;;;5100510;28;20271;-64
2023/01/10 04:56:40;;;;;;;12.37;3.00;;;6.10;99.90;;;;;;5098960;28;20994;-63
2023/01/10 04:59:09;;;;;;;13.83;3.13;;;6.10;99.90;;;;;;5097282;28;20218;-63
2023/01/10 05:01:37;;;;;;;13.37;2.30;;;6.00;99.90;;;;;;5098956;28;20206;-63
2023/01/10 05:04:05;;;;;;;10.60;3.53;;;6.00;99.90;;;;;;5080024;28;20210;-63
2023/01/10 05:06:32;;;;;;;18.27;2.97;;;6.00;99.90;;;;;;5099388;28;20205;-64
2023/01/10 05:08:59;;;;;;;10.97;2.77;;;5.90;99.90;;;;;;5099603;28;20198;-64
2023/01/10 05:11:26;;;;;;;12.03;2.80;;;5.90;99.90;;;;;;5101008;28;20325;-63
2023/01/10 05:13:53;;;;;;;11.00;2.87;;;5.90;99.90;;;;;;5098375;28;20550;-64
2023/01/10 05:16:19;;;;;;;13.37;2.80;;;5.80;99.90;;;;;;5097543;28;20195;-63
2023/01/10 05:18:47;;;;;;;11.40;3.10;;;5.70;99.90;;;;;;5095758;28;20249;-63
2023/01/10 05:21:13;;;;;;;19.50;3.40;;;5.70;99.90;;;;;;5098156;28;20191;-63
2023/01/10 05:23:40;;;;;;;9.07;2.23;;;5.70;99.90;;;;;;5081565;28;20218;-64
2023/01/10 05:26:10;;;;;;;12.30;3.23;;;5.70;99.90;;;;;;5098647;28;20286;-63
2023/01/10 05:28:38;;;;;;;13.33;2.93;;;5.70;99.90;;;;;;5098135;28;20207;-63
2023/01/10 05:31:06;;;;;;;12.90;3.10;;;5.70;99.90;;;;;;5098636;28;20601;-63
2023/01/10 05:33:33;;;;;;;10.70;2.43;;;5.70;99.90;;;;;;5099583;28;20206;-63
2023/01/10 05:36:02;;;;;;;10.60;2.60;;;5.70;99.90;;;;;;5099492;28;20266;-63
2023/01/10 05:38:29;;;;;;;8.13;2.37;;;5.70;99.90;;;;;;5080780;28;20240;-64
2023/01/10 05:40:57;;;;;;;11.13;3.07;;;5.70;99.90;;;;;;5100192;28;20206;-62
2023/01/10 05:43:25;;;;;;;9.77;2.70;;;5.80;99.90;;;;;;5099442;28;20297;-63
2023/01/10 05:45:52;;;;;;;14.00;3.10;;;5.80;99.90;;;;;;5079620;28;20647;-63
2023/01/10 05:48:19;;;;;;;14.80;3.73;;;5.80;99.90;;;;;;5097804;28;20226;-63
2023/01/10 05:50:48;;;;;;;13.67;3.37;;;5.70;99.90;;;;;;5099564;28;20727;-63
2023/01/10 05:53:15;;;;;;;9.47;2.80;;;5.70;99.90;;;;;;5099598;28;20659;-63
2023/01/10 05:55:42;;;;;;;16.50;4.00;;;5.70;99.90;;;;;;5078729;28;20245;-64
2023/01/10 05:58:10;;;;;;;13.73;2.33;;;5.70;99.90;;;;;;5098527;28;20622;-63
2023/01/10 06:00:38;;;;;;;11.00;2.33;;;5.70;99.90;;;;;;5099278;28;20205;-63
2023/01/10 06:03:06;;;;;;;14.03;3.00;;;5.70;99.90;;;;;;5081043;28;20798;-63
2023/01/10 06:05:32;;;;;;;16.10;2.97;;;5.70;99.90;;;;;;5099897;28;20215;-63
2023/01/10 06:07:59;;;;;;;18.57;3.03;;;5.70;99.90;;;;;;5095327;28;20194;-63
2023/01/10 06:10:26;;;;;;;13.97;2.63;;;5.80;99.90;;;;;;5094691;28;20210;-67
2023/01/10 06:12:53;;;;;;;13.70;3.70;;;5.80;99.90;;;;;;5099294;28;20556;-66
2023/01/10 06:15:20;;;;;;;11.20;3.13;;;5.70;99.90;;;;;;5094271;28;20232;-63
2023/01/10 06:17:47;;;;;;;8.57;2.50;;;5.70;99.90;;;;;;5097577;28;20202;-63
2023/01/10 06:20:14;;;;;;;12.57;3.07;;;5.80;99.90;;;;;;5099432;28;20202;-64
2023/01/10 06:22:42;;;;;;;13.20;2.87;;;5.80;99.90;;;;;;5098677;28;20565;-63
2023/01/10 06:25:10;;;;;;;11.50;2.70;;;5.70;99.90;;;;;;5099265;28;20195;-62
2023/01/10 06:27:39;;;;;;;13.73;3.07;;;5.80;99.90;;;;;;5095438;28;20569;-63
2023/01/10 06:30:07;;;;;;;13.67;2.37;;;5.70;99.90;;;;;;5098655;28;20210;-62
2023/01/10 06:32:35;;;;;;;12.67;2.53;;;5.80;99.90;;;;;;5098221;28;20238;-63
2023/01/10 06:35:03;;;;;;;13.27;3.23;;;5.70;99.90;;;;;;5099505;28;20261;-66
2023/01/10 06:37:30;;;;;;;14.23;2.60;;;5.70;99.90;;;;;;5080918;28;20198;-63
2023/01/10 06:39:57;;;;;;;9.50;2.07;;;5.70;99.90;;;;;;5098848;28;20213;-64
2023/01/10 06:42:24;;;;;;;13.20;2.53;;;5.70;99.90;;;;;;5098411;28;20201;-63
2023/01/10 06:44:50;;;;;;;10.87;2.27;;;5.70;99.90;;;;;;5098242;28;20298;-62
2023/01/10 06:47:17;;;;;;;13.83;3.03;;;5.70;99.90;;;;;;5095882;28;20285;-63
2023/01/10 06:49:44;;;;;;;20.07;3.50;;;5.70;99.90;;;;;;5097547;28;20231;-63
2023/01/10 06:52:11;;;;;;;9.63;2.70;;;5.60;99.90;;;;;;5079499;28;20204;-63
2023/01/10 06:54:37;;;;;;;14.40;3.23;;;5.60;99.90;;;;;;5097940;28;20232;-63
2023/01/10 06:57:04;;;;;;;14.77;2.80;;;5.60;99.90;;;;;;5097342;28;20243;-69
2023/01/10 06:59:31;;;;;;;10.87;2.30;;;5.50;99.90;;;;;;5097610;28;20229;-63
2023/01/10 07:01:58;;;;;;;14.17;2.67;;;5.40;99.90;;;;;;5089251;28;20202;-63
2023/01/10 07:04:25;;;;;;;10.57;2.60;;;5.40;99.90;;;;;;5098536;28;20206;-63
2023/01/10 07:06:53;;;;;;;11.30;3.00;;;5.40;99.90;;;;;;5097629;28;20543;-64
2023/01/10 07:09:20;;;;;;;19.10;2.30;;;5.40;99.90;;;;;;5097378;28;20194;-63
2023/01/10 07:11:46;;;;;;;15.23;3.23;;;5.30;99.90;;;;;;5099525;28;20231;-62
2023/01/10 07:14:13;;;;;;;12.23;2.83;;;5.30;99.90;;;;;;5078891;28;20287;-62
2023/01/10 07:16:40;;;;;;;13.40;2.97;;;5.30;99.90;;;;;;5097144;28;20213;-63
2023/01/10 07:19:07;;;;;;;11.80;2.53;;;5.30;99.90;;;;;;5090028;28;20199;-62
2023/01/10 07:21:33;;;;;;;12.40;2.53;;;5.30;99.90;;;;;;5093376;28;20206;-62
2023/01/10 07:24:00;;;;;;;12.83;2.73;;;5.30;99.90;;;;;;5074163;28;20706;-62
2023/01/10 07:26:28;;;;;;;10.57;2.87;;;5.40;99.90;;;;;;5088555;28;20194;-62
2023/01/10 07:28:56;;;;;;;12.43;2.67;;;5.40;99.90;;;;;;5087953;28;21187;-62
2023/01/10 07:31:23;;;;;;;10.97;3.07;;;5.40;99.90;;;;;;5081824;28;20918;-62
2023/01/10 07:33:51;;;;;;;9.20;2.77;;;5.40;99.90;;;;;;5082428;28;20658;-62
2023/01/10 07:36:18;;;;;;;10.07;3.40;;;5.50;99.90;;;;;;5053525;28;20242;-62
2023/01/10 07:38:45;;;;;;;10.67;2.53;;;5.50;99.90;;;;;;5083336;28;20201;-62
2023/01/10 07:41:12;;;;;;;15.27;3.20;;;5.50;99.90;;;;;;4721694;28;10000054;-62
2023/01/10 07:43:39;;;;;;;14.83;2.97;;;5.50;99.90;;;;;;5070382;28;21622;-62
2023/01/10 07:46:08;;;;;;;8.80;2.43;;;5.50;99.90;;;;;;5081880;28;20423;-62
2023/01/10 07:48:35;;;;;;;10.63;2.57;;;5.50;99.90;;;;;;5076137;28;20241;-62
2023/01/10 07:51:03;;;;;;;17.37;3.67;;;5.50;99.90;;;;;;5090489;28;20196;-61
2023/01/10 07:53:30;;;;;;;16.17;2.87;;;5.60;99.90;;;;;;5088400;28;20285;-62
2023/01/10 07:55:58;;;;;;;10.00;3.00;;;5.50;99.90;;;;;;5067003;28;20238;-62
2023/01/10 07:58:26;;;;;;;18.80;3.23;;;5.60;99.90;;;;;;5063390;28;20222;-61
2023/01/10 08:01:01;;;;;;;12.50;2.50;;;5.60;99.90;;;;;;5075418;28;20794;-62
2023/01/10 08:03:29;;;;;;;18.90;3.90;;;5.50;99.90;;;;;;5077428;28;20209;-62
2023/01/10 08:06:09;;;;;;;14.70;2.93;;;5.50;99.90;;;;;;5092164;28;20209;-62
2023/01/10 08:08:36;;;;;;;13.47;2.60;;;5.60;99.90;;;;;;5091827;28;20310;-62
2023/01/10 08:11:04;;;;;;;16.33;3.27;;;5.60;99.90;;;;;;5086993;28;20223;-62
2023/01/10 08:13:31;;;;;;;16.13;2.97;;;5.60;99.90;;;;;;5098942;28;20204;-62
2023/01/10 08:15:58;;;;;;;13.07;3.47;;;5.60;99.90;;;;;;5097880;28;20669;-64
2023/01/10 08:18:26;;;;;;;13.37;3.30;;;5.60;99.90;;;;;;5091573;28;20201;-62
2023/01/10 08:20:53;;;;;;;12.77;2.33;;;5.70;99.90;;;;;;5079221;28;20216;-62
2023/01/10 08:23:20;;;;;;;14.43;2.87;;;5.70;99.90;;;;;;5092810;28;21627;-62
2023/01/10 08:25:48;;;;;;;16.20;2.87;;;5.70;99.90;;;;;;5092492;28;20607;-61
2023/01/10 08:28:14;;;;;;;14.97;3.13;;;5.70;99.90;;;;;;5095093;28;20292;-63
2023/01/10 08:30:42;;;;;;;16.57;2.60;;;5.70;99.90;;;;;;5089470;28;20609;-63
2023/01/10 08:33:09;;;;;;;12.97;2.50;;;5.70;99.90;;;;;;5076620;28;20213;-62
2023/01/10 08:35:41;;;;;;;15.37;2.87;;;5.70;99.90;;;;;;5091566;28;21117;-63
2023/01/10 08:38:10;;;;;;;16.47;4.53;;;5.80;99.90;;;;;;5092962;28;20223;-63
2023/01/10 08:40:37;;;;;;;11.13;2.47;;;5.70;99.90;;;;;;5094059;28;20210;-62
2023/01/10 08:43:10;;;;;;;18.13;3.07;;;5.70;99.90;;;;;;5076936;28;20221;-61
2023/01/10 08:45:38;;;;;;;14.87;3.30;;;5.70;99.90;;;;;;5089971;28;20577;-61
2023/01/10 08:48:05;;;;;;;11.77;2.67;;;5.70;99.90;;;;;;5094619;28;20194;-62
2023/01/10 08:50:32;;;;;;;10.60;2.60;;;5.70;99.90;;;;;;5089396;28;20252;-62
2023/01/10 08:53:00;;;;;;;14.40;4.13;;;5.70;99.90;;;;;;5091386;28;20300;-62
2023/01/10 08:55:29;;;;;;;14.27;3.17;;;5.80;99.90;;;;;;5098099;28;20249;-62
2023/01/10 08:58:00;;;;;;;18.07;3.57;;;5.60;99.90;;;;;;5091783;28;20222;-62
2023/01/10 09:00:28;;;;;;;14.40;3.13;;;5.70;99.90;;;;;;5094728;28;20320;-62
2023/01/10 09:02:55;;;;;;;9.37;2.10;;;5.60;99.90;;;;;;5092076;28;20662;-62
2023/01/10 09:05:22;;;;;;;12.63;2.90;;;5.60;99.90;;;;;;5094796;28;20574;-62
2023/01/10 09:07:58;;;;;;;14.43;2.77;;;5.60;99.90;;;;;;5095150;28;20206;-62
2023/01/10 09:10:29;;;;;;;20.10;3.37;;;5.60;99.90;;;;;;5097580;28;20217;-61
2023/01/10 09:13:00;;;;;;;15.07;2.37;;;5.60;99.90;;;;;;5095986;28;20281;-64
2023/01/10 09:15:37;;;;;;;15.93;2.83;;;5.60;99.90;;;;;;5096704;28;20249;-61
2023/01/10 09:18:05;;;;;;;12.93;2.90;;;5.60;99.90;;;;;;5097470;28;20194;-63
2023/01/10 09:20:35;;;;;;;17.50;2.90;;;5.60;99.90;;;;;;5069685;28;20199;-61
2023/01/10 09:23:10;;;;;;;15.77;2.93;;;5.50;99.90;;;;;;5089979;28;20212;-61
2023/01/10 09:25:37;;;;;;;10.40;2.80;;;5.60;99.90;;;;;;5095977;28;20796;-62
2023/01/10 09:28:04;;;;;;;13.33;2.77;;;5.60;99.90;;;;;;5094234;28;20249;-61
2023/01/10 09:30:32;;;;;;;14.63;2.80;;;5.60;99.90;;;;;;5093097;28;20204;-62
2023/01/10 09:32:59;;;;;;;16.93;2.50;;;5.50;99.90;;;;;;5098181;28;20199;-62
2023/01/10 09:35:28;;;;;;;11.00;3.03;;;5.50;99.90;;;;;;5077472;28;20221;-61
2023/01/10 09:37:57;;;;;;;10.33;3.20;;;5.50;99.90;;;;;;5097157;28;20194;-60
2023/01/10 09:41:09;;;;;;;9.03;2.13;;;5.50;99.90;;;;;;5093274;28;20208;-61
2023/01/10 09:43:35;;;;;;;12.20;3.27;;;5.50;99.90;;;;;;5024563;28;20216;-62
2023/01/10 09:46:40;;;;;;;6.07;2.57;;;5.50;99.90;;;;;;5030364;28;20208;-61
2023/01/10 09:49:34;;;;;;;12.77;2.27;;;5.60;99.90;;;;;;5029424;28;20235;-62
2023/01/10 09:52:07;;;;;;;7.80;2.57;;;5.60;99.90;;;;;;5015193;28;20204;-60
2023/01/10 09:54:41;;;;;;;8.67;1.97;;;5.60;99.90;;;;;;5034787;28;20677;-62
2023/01/10 09:57:16;;;;;;;11.07;2.60;;;5.60;99.90;;;;;;5028262;28;20295;-62
2023/01/10 09:59:44;;;;;;;7.50;2.43;;;5.60;99.90;;;;;;5032128;28;20278;-61
2023/01/10 10:02:26;;;;;;;12.50;2.30;;;5.50;99.90;;;;;;5030278;28;20196;-61
2023/01/10 10:05:14;;;;;;;20.47;3.67;;;5.60;99.90;;;;;;5030098;28;20318;-61
2023/01/10 10:07:41;;;;;;;6.07;2.00;;;5.60;99.90;;;;;;5028125;28;20927;-63
2023/01/10 10:10:15;;;;;;;7.67;2.17;;;5.60;99.90;;;;;;5028271;28;20231;-61
2023/01/10 10:12:48;;;;;;;10.80;2.30;;;5.70;99.90;;;;;;5013127;28;20195;-61
2023/01/10 10:15:29;;;;;;;8.13;1.90;;;5.60;99.90;;;;;;5085975;28;20210;-61
2023/01/10 10:18:09;;;;;;;12.40;2.00;;;5.70;99.90;;;;;;5095267;28;20199;-62
2023/01/10 10:21:13;;;;;;;12.80;2.90;;;5.70;99.90;;;;;;5077283;28;20195;-61
2023/01/10 10:23:57;;;;;;;10.97;2.50;;;5.70;99.90;;;;;;5061070;28;20293;-61
2023/01/10 10:26:33;;;;;;;8.67;2.83;;;5.70;99.90;;;;;;5090478;28;20662;-61
2023/01/10 10:29:24;;;;;;;17.70;2.67;;;5.70;99.90;;;;;;5089011;28;20296;-61
2023/01/10 10:32:20;;;;;;;13.43;2.07;;;5.70;99.90;;;;;;5091685;28;20558;-64
2023/01/10 10:34:55;;;;;;;7.47;2.17;;;5.80;99.90;;;;;;5056810;28;20214;-61
2023/01/10 10:38:01;;;;;;;13.30;1.93;;;5.80;99.90;;;;;;5097502;28;20625;-61
2023/01/10 10:40:36;;;;;;;13.23;2.43;;;5.90;99.90;;;;;;5076547;28;20202;-61
2023/01/10 10:43:34;;;;;;;10.83;2.27;;;5.90;99.90;;;;;;5096317;28;20190;-62
2023/01/10 10:46:13;;;;;;;13.97;2.20;;;6.00;99.90;;;;;;5080602;28;20295;-61
2023/01/10 10:49:15;;;;;;;11.50;1.97;;;6.00;99.90;;;;;;5088525;28;20325;-63
2023/01/10 10:51:51;;;;;;;11.40;2.60;;;6.00;99.90;;;;;;5092872;28;20202;-61
2023/01/10 10:54:18;;;;;;;9.50;1.77;;;6.00;99.90;;;;;;5076946;28;20234;-62
2023/01/10 10:56:47;;;;;;;16.20;3.37;;;6.00;99.90;;;;;;5091930;28;20238;-61
2023/01/10 10:59:17;;;;;;;13.23;2.73;;;6.10;99.90;;;;;;5089127;28;20206;-61
2023/01/10 11:01:47;;;;;;;8.13;2.60;;;6.10;99.90;;;;;;5060273;28;20282;-61
2023/01/10 11:04:18;;;;;;;8.67;2.03;;;6.20;99.90;;;;;;5089755;28;20204;-61
2023/01/10 11:06:48;;;;;;;14.90;2.67;;;6.20;99.90;;;;;;5092796;28;20207;-61
2023/01/10 11:09:40;;;;;;;6.33;1.80;;;6.30;99.90;;;;;;5094071;28;20256;-61
2023/01/10 11:12:16;;;;;;;18.60;2.40;;;6.30;99.90;;;;;;5094707;28;20223;-61
2023/01/10 11:14:50;;;;;;;10.57;2.97;;;6.40;99.90;;;;;;5091578;28;20288;-61
2023/01/10 11:17:24;;;;;;;11.73;2.60;;;6.40;99.90;;;;;;5094807;28;20576;-61
2023/01/10 11:20:05;;;;;;;8.13;2.33;;;6.40;99.90;;;;;;5074300;28;20272;-61
2023/01/10 11:22:48;;;;;;;5.93;2.10;;;6.40;99.90;;;;;;5094686;28;20202;-62
2023/01/10 11:25:18;;;;;;;10.97;2.73;;;6.40;99.90;;;;;;5087342;28;20230;-62
2023/01/10 11:27:56;;;;;;;10.13;2.20;;;6.40;99.90;;;;;;5092041;28;20194;-61
2023/01/10 11:30:32;;;;;;;12.73;2.53;;;6.40;99.90;;;;;;5095118;28;20252;-61
2023/01/10 11:33:05;;;;;;;9.67;2.70;;;6.50;99.90;;;;;;5096430;28;20207;-61
2023/01/10 11:35:37;;;;;;;9.20;2.47;;;6.50;99.90;;;;;;5095987;28;20207;-62
2023/01/10 11:38:28;;;;;;;11.23;2.63;;;6.50;99.90;;;;;;5095055;28;20197;-61
2023/01/10 11:41:03;;;;;;;10.23;2.80;;;6.50;99.90;;;;;;5092233;28;20799;-61
2023/01/10 11:43:36;;;;;;;12.70;2.77;;;6.60;99.90;;;;;;5090752;28;20286;-62
2023/01/10 11:46:16;;;;;;;10.23;2.07;;;6.60;99.90;;;;;;5079471;28;20569;-61
2023/01/10 11:49:02;;;;;;;12.07;2.93;;;6.60;99.90;;;;;;5084875;28;20647;-61
2023/01/10 11:51:36;;;;;;;11.40;2.13;;;6.60;99.90;;;;;;5076364;28;20490;-61
2023/01/10 11:54:09;;;;;;;11.27;2.50;;;6.60;99.90;;;;;;5097649;28;20244;-61
2023/01/10 11:56:42;;;;;;;11.07;2.23;;;6.70;99.90;;;;;;5092771;28;21829;-63
2023/01/10 11:59:14;;;;;;;8.87;2.60;;;6.70;99.90;;;;;;5092620;28;20242;-62
2023/01/10 12:01:44;;;;;;;18.00;3.20;;;6.70;99.90;;;;;;5095965;28;20261;-62
2023/01/10 12:04:15;;;;;;;13.10;2.60;;;6.80;99.90;;;;;;5094302;28;20225;-61
2023/01/10 12:06:48;;;;;;;9.17;2.20;;;6.90;99.90;;;;;;5092793;28;20678;-61
2023/01/10 12:09:41;;;;;;;13.97;2.07;;;6.90;99.90;;;;;;5096433;28;20595;-61
2023/01/10 12:12:24;;;;;;;8.00;2.30;;;6.90;99.90;;;;;;5088757;28;20225;-61
2023/01/10 12:14:56;;;;;;;10.50;2.60;;;7.00;99.90;;;;;;5088904;28;20834;-61
2023/01/10 12:17:36;;;;;;;13.30;2.40;;;7.00;99.90;;;;;;5060204;28;20215;-61
2023/01/10 12:20:11;;;;;;;17.93;2.63;;;7.00;99.90;;;;;;5097645;28;20550;-64
2023/01/10 12:22:40;;;;;;;13.30;2.27;;;7.00;99.90;;;;;;5095217;28;20718;-61
2023/01/10 12:25:23;;;;;;;8.97;2.10;;;7.10;99.90;;;;;;5096982;28;20194;-64
2023/01/10 12:27:51;;;;;;;10.87;2.70;;;7.10;99.90;;;;;;5089856;28;20213;-61
2023/01/10 12:30:40;;;;;;;11.23;2.43;;;7.10;99.90;;;;;;5074952;28;20203;-60
2023/01/10 12:33:14;;;;;;;9.50;2.70;;;7.10;99.90;;;;;;5098177;28;20662;-62
2023/01/10 12:35:58;;;;;;;9.57;2.83;;;7.10;99.90;;;;;;5099025;28;20687;-62
2023/01/10 12:44:42;;;;;;;10.57;2.30;;;7.10;99.90;;;;;;5059721;28;20697;-61
2023/01/10 12:47:29;;;;;;;11.20;2.80;;;7.20;99.90;;;;;;5081034;28;20199;-61
2023/01/10 12:49:59;;;;;;;12.17;2.03;;;7.20;99.90;;;;;;5080497;28;20604;-62
2023/01/10 12:52:46;;;;;;;9.53;2.60;;;7.20;99.90;;;;;;5095113;28;20678;-65
2023/01/10 12:55:20;;;;;;;9.37;2.60;;;7.10;99.90;;;;;;5099298;28;20323;-62
2023/01/10 12:57:52;;;;;;;16.87;3.17;;;7.20;99.90;;;;;;5096964;28;20700;-62
2023/01/10 13:00:25;;;;;;;6.47;2.10;;;7.20;99.90;;;;;;5094983;28;20895;-62
2023/01/10 13:02:54;;;;;;;12.73;3.00;;;7.20;99.90;;;;;;5101700;28;20225;-61
2023/01/10 13:05:27;;;;;;;13.60;2.87;;;7.20;99.90;;;;;;5078188;28;20666;-61
2023/01/10 13:07:59;;;;;;;12.90;2.90;;;7.20;99.90;;;;;;5096279;28;20206;-62
2023/01/10 13:10:27;;;;;;;15.17;2.30;;;7.20;99.90;;;;;;5100610;28;20608;-61
2023/01/10 13:13:20;;;;;;;13.20;2.40;;;7.30;99.90;;;;;;5096859;28;20202;-62
2023/01/10 13:15:53;;;;;;;12.87;2.20;;;7.30;99.90;;;;;;5088310;28;20255;-61
2023/01/10 13:18:30;;;;;;;14.07;2.67;;;7.20;99.90;;;;;;5080562;28;20229;-61
2023/01/10 13:21:12;;;;;;;9.53;2.33;;;7.30;99.90;;;;;;5098735;28;20202;-61
2023/01/10 13:23:47;;;;;;;12.20;2.40;;;7.30;99.90;;;;;;5096838;28;20263;-61
2023/01/10 13:26:14;;;;;;;12.90;3.17;;;7.30;99.90;;;;;;5093323;28;20245;-61
2023/01/10 13:28:56;;;;;;;12.30;2.43;;;7.40;99.90;;;;;;5098305;28;20195;-62
2023/01/10 13:31:33;;;;;;;8.63;3.00;;;7.40;99.90;;;;;;5098480;28;20194;-65